In Rescue
 
Open Full Screen Window  High Contrast Mode
January 17, 2021 1:16 PM CST
Present Weather: Light Snow
Weather Information
Wind Direction
  ---
Wind Speed
  00 kt (0 mph)
Wind Gust
  00 kt (0 mph)
Altimeter
29.77 in
Visibility
10 SM
Temperature
-08° C
18° F
Dewpoint
-10° C
14° F
Humidity
86%
1hr Rain Fall
00.00 in.
24hr Rain Fall
00.00 in.
Sky Condition
Overcast @ 500 ft
IFR

METAR KAIT 171916Z AUTO 00000KT 10SM -SN OVC005 M08/M10 A2977 RMK AO2

FAA Disclaimer: The data displayed is for advisory purposes only and is not to be used for flight planning or operations.